createdAt,value
2018-08-17T00:00:03.664Z,17.76
2018-08-17T00:02:31.814Z,17.76
2018-08-17T00:04:59.943Z,17.65
2018-08-17T00:07:28.612Z,17.67
2018-08-17T00:09:56.756Z,17.65
2018-08-17T00:12:24.887Z,17.75
2018-08-17T00:14:53.039Z,17.78
2018-08-17T00:17:21.171Z,17.74
2018-08-17T00:19:49.330Z,17.69
2018-08-17T00:22:17.469Z,17.49
2018-08-17T00:24:45.682Z,17.61
2018-08-17T00:27:13.785Z,17.60
2018-08-17T00:29:41.940Z,17.55
2018-08-17T00:32:10.123Z,17.52
2018-08-17T00:34:38.303Z,17.47
2018-08-17T00:37:06.464Z,17.44
2018-08-17T00:39:34.619Z,17.44
2018-08-17T00:42:02.811Z,17.37
2018-08-17T00:44:30.959Z,17.12
2018-08-17T00:46:59.076Z,17.17
2018-08-17T00:49:27.216Z,17.29
2018-08-17T00:52:02.457Z,17.23
2018-08-17T00:54:30.656Z,17.18
2018-08-17T00:56:58.826Z,17.17
2018-08-17T00:59:27.425Z,17.15
2018-08-17T01:01:55.600Z,17.03
2018-08-17T01:04:23.761Z,17.11
2018-08-17T01:06:51.927Z,17.08
2018-08-17T01:09:20.105Z,17.09
2018-08-17T01:11:48.281Z,16.93
2018-08-17T01:14:16.511Z,16.84
2018-08-17T01:16:44.680Z,16.65
2018-08-17T01:19:12.866Z,16.54
2018-08-17T01:21:41.043Z,16.56
2018-08-17T01:24:09.214Z,16.64
2018-08-17T01:26:37.406Z,16.57
2018-08-17T01:29:05.578Z,16.47
2018-08-17T01:31:33.764Z,16.37
2018-08-17T01:34:01.971Z,16.50
2018-08-17T01:36:30.177Z,16.53
2018-08-17T01:38:58.343Z,16.28
2018-08-17T01:41:26.510Z,16.28
2018-08-17T01:43:54.676Z,16.27
2018-08-17T01:46:22.856Z,16.29
2018-08-17T01:48:51.031Z,16.34
2018-08-17T01:51:19.224Z,16.49
2018-08-17T01:53:47.381Z,16.57
2018-08-17T01:56:15.548Z,16.49
2018-08-17T01:58:44.520Z,16.58
2018-08-17T02:01:12.737Z,16.55
2018-08-17T02:03:40.921Z,16.56
2018-08-17T02:06:09.105Z,16.56
2018-08-17T02:08:37.273Z,16.56
2018-08-17T02:11:05.447Z,16.55
2018-08-17T02:13:33.636Z,16.56
2018-08-17T02:16:01.800Z,16.55
2018-08-17T02:18:29.938Z,16.43
2018-08-17T02:20:58.126Z,16.41
2018-08-17T02:23:26.292Z,16.26
2018-08-17T02:25:55.148Z,16.28
2018-08-17T02:28:23.436Z,16.27
2018-08-17T02:30:51.634Z,16.23
2018-08-17T02:33:19.802Z,16.24
2018-08-17T02:35:48.032Z,16.22
2018-08-17T02:38:16.265Z,16.23
2018-08-17T02:40:44.442Z,16.12
2018-08-17T02:43:12.732Z,16.16
2018-08-17T02:45:40.910Z,16.12
2018-08-17T02:48:09.070Z,16.18
2018-08-17T02:50:37.264Z,16.14
2018-08-17T02:53:06.313Z,16.12
2018-08-17T02:55:34.483Z,16.10
2018-08-17T02:58:02.618Z,16.12
2018-08-17T03:00:30.770Z,16.10
2018-08-17T03:02:58.942Z,16.09
2018-08-17T03:05:27.069Z,16.05
2018-08-17T03:07:55.226Z,15.95
2018-08-17T03:10:23.385Z,15.95
2018-08-17T03:12:52.110Z,15.96
2018-08-17T03:15:20.254Z,15.98
2018-08-17T03:17:48.412Z,15.97
2018-08-17T03:20:16.603Z,15.94
2018-08-17T03:22:44.747Z,15.80
2018-08-17T03:25:12.915Z,15.65
2018-08-17T03:27:41.083Z,15.73
2018-08-17T03:30:09.225Z,15.64
2018-08-17T03:32:37.386Z,15.68
2018-08-17T03:35:05.897Z,15.65
2018-08-17T03:37:34.018Z,15.72
2018-08-17T03:40:02.213Z,15.73
2018-08-17T03:42:30.442Z,15.75
2018-08-17T03:44:58.581Z,15.78
2018-08-17T03:47:26.776Z,15.77
2018-08-17T03:49:54.941Z,15.75
2018-08-17T03:52:23.083Z,15.72
2018-08-17T03:54:51.205Z,15.75
2018-08-17T03:57:19.354Z,15.73
2018-08-17T03:59:47.535Z,15.73
2018-08-17T04:02:15.692Z,15.75
2018-08-17T04:04:43.840Z,15.75
2018-08-17T04:07:11.995Z,15.82
2018-08-17T04:09:40.125Z,15.81
2018-08-17T04:12:08.297Z,15.77
2018-08-17T04:14:36.434Z,15.86
2018-08-17T04:17:04.583Z,15.69
2018-08-17T04:19:32.720Z,15.60
2018-08-17T04:22:00.862Z,15.54
2018-08-17T04:24:29.015Z,15.44
2018-08-17T04:26:57.202Z,15.53
2018-08-17T04:29:25.352Z,15.64
2018-08-17T04:31:53.518Z,15.69
2018-08-17T04:34:22.224Z,15.79
2018-08-17T04:36:50.342Z,15.76
2018-08-17T04:39:18.503Z,15.86
2018-08-17T04:41:46.646Z,15.56
2018-08-17T04:44:14.820Z,15.82
2018-08-17T04:46:42.988Z,16.04
2018-08-17T04:49:11.119Z,16.11
2018-08-17T04:51:39.288Z,16.19
2018-08-17T04:54:07.452Z,16.50
2018-08-17T04:56:35.605Z,16.47
2018-08-17T04:59:03.764Z,16.63
2018-08-17T05:01:31.930Z,17.04
2018-08-17T05:04:00.098Z,17.61
2018-08-17T05:06:28.264Z,17.79
2018-08-17T05:08:56.463Z,17.84
2018-08-17T05:11:24.596Z,17.48
2018-08-17T05:13:52.801Z,17.51
2018-08-17T05:16:20.965Z,17.55
2018-08-17T05:18:49.128Z,17.53
2018-08-17T05:21:17.329Z,17.52
2018-08-17T05:23:45.506Z,17.83
2018-08-17T05:26:13.625Z,18.43
2018-08-17T05:28:41.806Z,18.98
2018-08-17T05:31:09.942Z,18.96
2018-08-17T05:33:38.087Z,18.66
2018-08-17T05:36:06.328Z,18.40
2018-08-17T05:38:34.983Z,18.50
2018-08-17T05:41:03.150Z,18.73
2018-08-17T05:43:31.314Z,19.38
2018-08-17T05:45:59.487Z,19.36
2018-08-17T05:48:28.484Z,19.13
2018-08-17T05:50:56.638Z,18.86
2018-08-17T05:53:24.805Z,18.81
2018-08-17T05:55:52.998Z,19.21
2018-08-17T05:58:21.173Z,20.40
2018-08-17T06:00:49.417Z,21.53
2018-08-17T06:03:17.575Z,21.86
2018-08-17T06:05:45.727Z,21.85
2018-08-17T06:08:13.921Z,21.89
2018-08-17T06:10:42.122Z,21.67
2018-08-17T06:13:10.287Z,21.14
2018-08-17T06:15:38.431Z,20.26
2018-08-17T06:18:06.661Z,21.01
2018-08-17T06:20:34.830Z,21.44
2018-08-17T06:23:03.136Z,21.77
2018-08-17T06:25:31.342Z,22.44
2018-08-17T06:27:59.499Z,22.14
2018-08-17T06:30:27.709Z,21.42
2018-08-17T06:32:55.881Z,21.35
2018-08-17T06:35:24.057Z,20.87
2018-08-17T06:37:52.209Z,20.72
2018-08-17T06:40:20.400Z,20.40
2018-08-17T06:42:48.581Z,20.32
2018-08-17T06:45:16.757Z,19.82
2018-08-17T06:47:44.951Z,19.91
2018-08-17T06:50:13.214Z,19.76
2018-08-17T06:52:42.348Z,19.61
2018-08-17T06:55:11.562Z,19.58
2018-08-17T06:57:40.137Z,19.46
2018-08-17T07:00:10.780Z,19.39
2018-08-17T07:02:39.158Z,19.88
2018-08-17T07:05:07.557Z,20.14
2018-08-17T07:07:35.751Z,20.44
2018-08-17T07:10:04.423Z,20.61
2018-08-17T07:12:32.587Z,20.39
2018-08-17T07:15:00.766Z,20.76
2018-08-17T07:17:29.043Z,21.17
2018-08-17T07:19:57.219Z,21.77
2018-08-17T07:22:25.390Z,21.81
2018-08-17T07:24:53.636Z,21.58
2018-08-17T07:27:22.201Z,21.42
2018-08-17T07:29:50.541Z,21.50
2018-08-17T07:32:18.796Z,22.03
2018-08-17T07:34:46.994Z,21.48
2018-08-17T07:37:15.145Z,21.53
2018-08-17T07:39:43.343Z,21.79
2018-08-17T07:42:22.993Z,21.94
2018-08-17T07:44:51.212Z,21.66
2018-08-17T07:47:19.384Z,21.75
2018-08-17T07:49:47.566Z,21.51
2018-08-17T07:52:15.741Z,21.43
2018-08-17T07:54:43.920Z,21.62
2018-08-17T07:57:12.140Z,21.38
2018-08-17T07:59:40.351Z,21.24
2018-08-17T08:02:08.505Z,20.85
2018-08-17T08:04:36.689Z,21.36
2018-08-17T08:07:04.897Z,21.44
2018-08-17T08:09:33.144Z,21.28
2018-08-17T08:12:01.304Z,21.04
2018-08-17T08:14:29.500Z,21.07
2018-08-17T08:16:58.106Z,21.11
2018-08-17T08:19:26.263Z,20.99
2018-08-17T08:21:54.446Z,21.15
2018-08-17T08:24:22.593Z,21.33
2018-08-17T08:26:51.007Z,21.89
2018-08-17T08:29:19.239Z,22.39
2018-08-17T08:31:47.672Z,22.66
2018-08-17T08:34:15.872Z,22.59
2018-08-17T08:36:44.103Z,22.64
2018-08-17T08:39:13.525Z,22.50
2018-08-17T08:41:41.670Z,22.54
2018-08-17T08:44:09.838Z,23.09
2018-08-17T08:46:38.462Z,23.37
2018-08-17T08:49:06.772Z,23.41
2018-08-17T08:51:35.074Z,22.94
2018-08-17T08:54:03.848Z,22.71
2018-08-17T08:56:32.295Z,22.80
2018-08-17T08:59:00.441Z,23.00
2018-08-17T09:01:28.867Z,23.19
2018-08-17T09:03:57.199Z,23.29
2018-08-17T09:06:25.372Z,23.56
2018-08-17T09:08:53.523Z,23.81
2018-08-17T09:11:21.687Z,24.05
2018-08-17T09:13:49.843Z,24.47
2018-08-17T09:16:17.928Z,24.63
2018-08-17T09:18:46.181Z,24.75
2018-08-17T09:21:14.337Z,24.40
2018-08-17T09:23:42.488Z,24.04
2018-08-17T09:26:10.619Z,24.05
2018-08-17T09:28:38.855Z,23.64
2018-08-17T09:31:07.358Z,23.48
2018-08-17T09:33:35.690Z,23.15
2018-08-17T09:36:03.880Z,23.15
2018-08-17T09:38:32.022Z,22.98
2018-08-17T09:41:01.156Z,22.65
2018-08-17T09:43:29.276Z,22.74
2018-08-17T09:45:57.422Z,22.93
2018-08-17T09:48:25.577Z,22.90
2018-08-17T09:50:53.711Z,22.83
2018-08-17T09:53:21.868Z,22.84
2018-08-17T09:55:50.011Z,22.78
2018-08-17T09:58:18.136Z,22.88
2018-08-17T10:00:51.675Z,22.84
2018-08-17T10:03:25.171Z,22.59
2018-08-17T10:05:58.599Z,22.42
2018-08-17T10:08:32.725Z,22.44
2018-08-17T10:11:00.997Z,22.78
2018-08-17T10:13:29.748Z,22.90
2018-08-17T10:15:57.874Z,22.92
2018-08-17T10:18:30.826Z,23.03
2018-08-17T10:20:58.982Z,22.94
2018-08-17T10:23:27.068Z,22.92
2018-08-17T10:25:55.223Z,23.07
2018-08-17T10:28:23.366Z,23.10
2018-08-17T10:30:51.540Z,23.19
2018-08-17T10:33:19.741Z,23.06
2018-08-17T10:35:47.865Z,23.01
2018-08-17T10:38:16.005Z,22.87
2018-08-17T10:40:44.208Z,22.59
2018-08-17T10:43:12.858Z,22.39
2018-08-17T10:45:41.053Z,22.36
2018-08-17T10:48:09.281Z,22.38
2018-08-17T10:50:37.394Z,22.49
2018-08-17T10:53:05.754Z,22.64
2018-08-17T10:55:40.959Z,23.02
2018-08-17T10:58:10.608Z,23.29
2018-08-17T11:00:38.759Z,23.43
2018-08-17T11:03:07.957Z,23.48
2018-08-17T11:05:36.116Z,23.53
2018-08-17T11:08:05.309Z,23.27
2018-08-17T11:10:33.422Z,23.14
2018-08-17T11:13:01.573Z,23.06
2018-08-17T11:15:29.767Z,23.06
2018-08-17T11:17:58.734Z,22.89
2018-08-17T11:20:26.881Z,22.64
2018-08-17T11:22:55.039Z,22.34
2018-08-17T11:25:23.137Z,21.96
2018-08-17T11:27:51.994Z,21.71
2018-08-17T11:30:20.166Z,21.60
2018-08-17T11:32:48.310Z,21.45
2018-08-17T11:35:16.468Z,21.41
2018-08-17T11:37:44.620Z,21.27
2018-08-17T11:40:13.449Z,21.05
2018-08-17T11:42:43.164Z,20.85
2018-08-17T11:45:14.557Z,20.74
2018-08-17T11:47:43.522Z,20.79
2018-08-17T11:50:13.684Z,20.73
2018-08-17T11:52:49.085Z,20.67
2018-08-17T11:55:17.783Z,20.65
2018-08-17T11:57:45.990Z,20.31
2018-08-17T12:00:14.120Z,20.09
2018-08-17T12:02:42.337Z,20.10
2018-08-17T12:05:10.977Z,19.85
2018-08-17T12:07:39.911Z,19.84
2018-08-17T12:10:08.088Z,19.69
2018-08-17T12:12:37.502Z,19.19
2018-08-17T12:15:06.580Z,19.22
2018-08-17T12:17:34.891Z,18.91
2018-08-17T12:20:03.395Z,19.11
2018-08-17T12:22:31.889Z,19.25
2018-08-17T12:25:00.512Z,19.49
2018-08-17T12:27:28.597Z,19.69
2018-08-17T12:29:56.796Z,19.90
2018-08-17T12:32:25.328Z,19.92
2018-08-17T12:34:53.651Z,19.79
2018-08-17T12:37:21.867Z,19.84
2018-08-17T12:39:50.109Z,19.97
2018-08-17T12:42:18.310Z,19.90
2018-08-17T12:44:46.535Z,20.01
2018-08-17T12:47:14.739Z,20.11
2018-08-17T12:49:42.951Z,20.30
2018-08-17T12:52:11.192Z,20.29
2018-08-17T12:54:39.928Z,20.51
2018-08-17T12:57:09.100Z,20.56
2018-08-17T12:59:37.386Z,20.77
2018-08-17T13:02:05.540Z,20.60
2018-08-17T13:04:33.649Z,20.46
2018-08-17T13:07:01.800Z,20.72
2018-08-17T13:09:29.916Z,20.97
2018-08-17T13:12:00.273Z,21.04
2018-08-17T13:14:28.881Z,20.89
2018-08-17T13:16:59.055Z,20.67
2018-08-17T13:19:27.360Z,21.06
2018-08-17T13:21:55.552Z,21.08
2018-08-17T13:24:23.785Z,21.32
2018-08-17T13:26:51.982Z,21.46
2018-08-17T13:29:20.268Z,21.50
2018-08-17T13:31:48.467Z,21.48
2018-08-17T13:34:16.619Z,21.48
2018-08-17T13:36:44.732Z,21.50
2018-08-17T13:39:12.848Z,21.62
2018-08-17T13:41:40.971Z,21.66
2018-08-17T13:44:11.586Z,21.81
2018-08-17T13:46:39.677Z,21.88
2018-08-17T13:49:07.806Z,21.71
2018-08-17T13:51:35.900Z,21.89
2018-08-17T13:54:04.314Z,21.90
2018-08-17T13:56:32.430Z,21.91
2018-08-17T13:59:00.525Z,21.81
2018-08-17T14:01:28.671Z,21.70
2018-08-17T14:03:56.831Z,21.57
2018-08-17T14:06:25.015Z,21.61
2018-08-17T14:08:53.168Z,21.63
2018-08-17T14:11:21.589Z,21.71
2018-08-17T14:13:49.744Z,21.44
2018-08-17T14:16:18.020Z,21.40
2018-08-17T14:18:46.209Z,21.36
2018-08-17T14:21:14.339Z,21.33
2018-08-17T14:23:42.593Z,21.14
2018-08-17T14:26:10.690Z,21.19
2018-08-17T14:28:38.884Z,21.07
2018-08-17T14:31:07.026Z,21.18
2018-08-17T14:33:35.153Z,21.27
2018-08-17T14:36:03.377Z,21.29
2018-08-17T14:38:33.680Z,21.37
2018-08-17T14:41:02.493Z,21.20
2018-08-17T14:43:30.645Z,21.34
2018-08-17T14:45:58.805Z,21.22
2018-08-17T14:48:26.922Z,21.26
2018-08-17T14:50:55.262Z,21.29
2018-08-17T14:53:23.472Z,21.12
2018-08-17T14:55:51.613Z,21.36
2018-08-17T14:58:19.753Z,21.37
2018-08-17T15:00:47.957Z,21.53
2018-08-17T15:03:16.911Z,21.81
2018-08-17T15:05:45.923Z,21.82
2018-08-17T15:08:14.163Z,21.57
2018-08-17T15:10:42.230Z,21.60
2018-08-17T15:13:14.476Z,21.60
2018-08-17T15:15:43.490Z,21.52
2018-08-17T15:18:11.715Z,21.44
2018-08-17T15:20:39.835Z,21.26
2018-08-17T15:23:09.185Z,21.30
2018-08-17T15:25:38.394Z,21.28
2018-08-17T15:28:06.556Z,21.31
2018-08-17T15:30:34.687Z,21.20
2018-08-17T15:33:02.864Z,21.21
2018-08-17T15:35:30.984Z,21.29
2018-08-17T15:37:59.094Z,21.12
2018-08-17T15:40:27.190Z,20.88
2018-08-17T15:42:58.660Z,20.75
2018-08-17T15:45:26.784Z,20.54
2018-08-17T15:47:54.921Z,20.55
2018-08-17T15:50:23.176Z,20.56
2018-08-17T15:52:51.322Z,20.64
2018-08-17T15:55:19.535Z,20.52
2018-08-17T15:57:47.794Z,20.44
2018-08-17T16:00:18.009Z,20.34
2018-08-17T16:02:46.171Z,20.38
2018-08-17T16:05:14.341Z,20.42
2018-08-17T16:07:42.544Z,20.50
2018-08-17T16:10:12.621Z,20.49
2018-08-17T16:12:40.708Z,20.50
2018-08-17T16:15:09.771Z,20.56
2018-08-17T16:17:38.359Z,20.42
2018-08-17T16:20:07.662Z,20.41
2018-08-17T16:22:35.808Z,20.64
2018-08-17T16:25:03.955Z,20.34
2018-08-17T16:27:32.076Z,20.49
2018-08-17T16:30:00.223Z,20.49
2018-08-17T16:32:28.333Z,20.59
2018-08-17T16:34:56.480Z,20.49
2018-08-17T16:37:24.674Z,20.56
2018-08-17T16:39:54.838Z,20.48
2018-08-17T16:42:27.408Z,20.41
2018-08-17T16:44:55.977Z,20.45
2018-08-17T16:47:24.060Z,20.34
2018-08-17T16:49:52.268Z,20.17
2018-08-17T16:52:20.388Z,20.14
2018-08-17T16:54:48.569Z,20.27
2018-08-17T16:57:16.683Z,20.06
2018-08-17T16:59:44.951Z,20.18
2018-08-17T17:02:13.108Z,20.07
2018-08-17T17:04:42.441Z,20.08
2018-08-17T17:07:10.572Z,20.15
2018-08-17T17:09:40.063Z,20.31
2018-08-17T17:12:21.200Z,20.27
2018-08-17T17:14:49.319Z,20.22
2018-08-17T17:17:17.508Z,20.24
2018-08-17T17:19:45.653Z,20.11
2018-08-17T17:22:13.824Z,20.18
2018-08-17T17:24:41.913Z,20.20
2018-08-17T17:27:10.046Z,20.21
2018-08-17T17:29:38.525Z,20.13
2018-08-17T17:32:07.174Z,20.14
2018-08-17T17:34:35.316Z,20.09
2018-08-17T17:37:03.463Z,20.11
2018-08-17T17:39:32.020Z,20.01
2018-08-17T17:42:00.132Z,20.01
2018-08-17T17:44:28.910Z,19.91
2018-08-17T17:46:57.013Z,19.95
2018-08-17T17:49:25.153Z,19.86
2018-08-17T17:51:53.307Z,19.86
2018-08-17T17:54:24.234Z,19.86
2018-08-17T17:57:24.037Z,19.75
2018-08-17T17:59:56.241Z,19.74
2018-08-17T18:02:24.422Z,19.67
2018-08-17T18:04:52.560Z,19.63
2018-08-17T18:07:20.847Z,19.48
2018-08-17T18:09:49.856Z,19.33
2018-08-17T18:12:17.984Z,19.34
2018-08-17T18:14:46.105Z,19.23
2018-08-17T18:17:14.260Z,19.13
2018-08-17T18:19:42.398Z,18.99
2018-08-17T18:22:18.144Z,18.89
2018-08-17T18:24:46.329Z,18.79
2018-08-17T18:27:14.484Z,18.71
2018-08-17T18:29:42.698Z,18.65
2018-08-17T18:32:10.874Z,18.60
2018-08-17T18:34:39.016Z,18.60
2018-08-17T18:37:07.714Z,18.54
2018-08-17T18:39:35.897Z,18.56
2018-08-17T18:42:04.058Z,18.43
2018-08-17T18:44:32.261Z,18.32
2018-08-17T18:47:00.442Z,18.25
2018-08-17T18:49:28.628Z,18.20
2018-08-17T18:51:56.799Z,18.10
2018-08-17T18:54:24.923Z,18.01
2018-08-17T18:56:53.090Z,17.99
2018-08-17T18:59:21.214Z,17.90
2018-08-17T19:01:49.363Z,17.83
2018-08-17T19:04:17.537Z,17.73
2018-08-17T19:06:45.712Z,17.69
2018-08-17T19:09:13.881Z,17.61
2018-08-17T19:11:42.021Z,17.57
2018-08-17T19:14:10.142Z,17.49
2018-08-17T19:16:38.330Z,17.46
2018-08-17T19:19:06.485Z,17.43
2018-08-17T19:21:34.621Z,17.35
2018-08-17T19:24:08.265Z,17.32
2018-08-17T19:26:36.414Z,17.29
2018-08-17T19:29:04.632Z,17.25
2018-08-17T19:31:32.774Z,17.21
2018-08-17T19:34:00.920Z,17.16
2018-08-17T19:36:29.080Z,17.08
2018-08-17T19:38:57.210Z,17.03
2018-08-17T19:41:25.381Z,16.91
2018-08-17T19:43:53.531Z,16.84
2018-08-17T19:46:21.774Z,16.80
2018-08-17T19:48:49.830Z,16.75
2018-08-17T19:51:19.016Z,16.73
2018-08-17T19:53:47.525Z,16.70
2018-08-17T19:56:16.316Z,16.65
2018-08-17T19:58:44.484Z,16.62
2018-08-17T20:01:13.416Z,16.59
2018-08-17T20:03:41.574Z,16.57
2018-08-17T20:06:09.748Z,16.58
2018-08-17T20:08:37.860Z,16.54
2018-08-17T20:11:05.995Z,16.47
2018-08-17T20:13:34.141Z,16.42
2018-08-17T20:16:02.664Z,16.40
2018-08-17T20:18:31.009Z,16.34
2018-08-17T20:20:59.188Z,16.33
2018-08-17T20:23:27.314Z,16.28
2018-08-17T20:25:55.585Z,16.28
2018-08-17T20:28:23.588Z,16.23
2018-08-17T20:30:51.713Z,16.16
2018-08-17T20:33:28.010Z,16.11
2018-08-17T20:35:56.807Z,16.09
2018-08-17T20:38:25.015Z,16.03
2018-08-17T20:40:57.794Z,15.99
2018-08-17T20:43:26.259Z,15.97
2018-08-17T20:45:54.415Z,15.92
2018-08-17T20:48:22.558Z,15.89
2018-08-17T20:50:50.675Z,15.82
2018-08-17T20:53:20.702Z,15.78
2018-08-17T20:55:48.852Z,15.76
2018-08-17T20:58:17.974Z,15.73
2018-08-17T21:00:46.124Z,15.66
2018-08-17T21:03:14.314Z,15.66
2018-08-17T21:05:42.578Z,15.60
2018-08-17T21:08:10.752Z,15.53
2018-08-17T21:10:39.070Z,15.53
2018-08-17T21:13:07.270Z,15.48
2018-08-17T21:15:35.409Z,15.44
2018-08-17T21:18:03.583Z,15.41
2018-08-17T21:20:31.759Z,15.39
2018-08-17T21:22:59.955Z,15.31
2018-08-17T21:25:28.160Z,15.27
2018-08-17T21:27:56.301Z,15.20
2018-08-17T21:30:24.457Z,15.19
2018-08-17T21:32:52.636Z,15.18
2018-08-17T21:35:20.784Z,15.17
2018-08-17T21:37:48.973Z,15.14
2018-08-17T21:40:22.541Z,15.08
2018-08-17T21:42:50.781Z,15.08
2018-08-17T21:45:18.915Z,15.08
2018-08-17T21:47:47.086Z,15.05
2018-08-17T21:50:16.932Z,15.08
2018-08-17T21:52:46.455Z,15.08
2018-08-17T21:55:14.942Z,15.09
2018-08-17T21:57:43.444Z,15.09
2018-08-17T22:00:19.643Z,15.06
2018-08-17T22:02:47.831Z,15.05
2018-08-17T22:05:20.125Z,15.03
2018-08-17T22:07:48.288Z,15.04
2018-08-17T22:10:16.455Z,15.01
2018-08-17T22:12:44.635Z,14.93
2018-08-17T22:15:12.847Z,14.93
2018-08-17T22:17:41.179Z,14.91
2018-08-17T22:20:10.331Z,14.84
2018-08-17T22:22:38.525Z,14.78
2018-08-17T22:25:15.193Z,14.72
2018-08-17T22:27:43.323Z,14.70
2018-08-17T22:30:21.573Z,14.63
2018-08-17T22:32:49.805Z,14.60
2018-08-17T22:35:18.200Z,14.57
2018-08-17T22:37:46.239Z,14.49
2018-08-17T22:40:14.440Z,14.50
2018-08-17T22:42:42.600Z,14.45
2018-08-17T22:45:10.761Z,14.37
2018-08-17T22:47:38.962Z,14.34
2018-08-17T22:50:07.325Z,14.28
2018-08-17T22:52:35.798Z,14.24
2018-08-17T22:55:08.389Z,14.22
2018-08-17T22:57:36.554Z,14.17
2018-08-17T23:00:23.366Z,14.21
2018-08-17T23:02:53.584Z,14.12
2018-08-17T23:05:24.933Z,14.05
2018-08-17T23:07:53.098Z,13.99
2018-08-17T23:10:22.450Z,13.94
2018-08-17T23:12:51.622Z,13.92
2018-08-17T23:15:19.786Z,13.95
2018-08-17T23:17:49.582Z,13.95
2018-08-17T23:20:21.868Z,13.93
2018-08-17T23:22:52.210Z,13.88
2018-08-17T23:25:20.595Z,13.89
2018-08-17T23:27:49.912Z,13.79
2018-08-17T23:30:18.053Z,13.82
2018-08-17T23:32:47.182Z,13.83
2018-08-17T23:35:15.316Z,13.78
2018-08-17T23:37:43.444Z,13.76
2018-08-17T23:40:11.624Z,13.74
2018-08-17T23:42:39.870Z,13.72
2018-08-17T23:45:13.838Z,13.69
2018-08-17T23:47:42.037Z,13.63
2018-08-17T23:50:11.500Z,13.57
2018-08-17T23:52:39.716Z,13.56
2018-08-17T23:55:09.817Z,13.52
2018-08-17T23:57:37.962Z,13.51
